createdAt,value
2023-02-18T00:04:52.014Z,96.14
2023-02-18T00:09:51.944Z,95.62
2023-02-18T00:14:52.186Z,96.28
2023-02-18T00:19:51.803Z,97.15
2023-02-18T00:24:51.725Z,99.21
2023-02-18T00:29:51.685Z,99.21
2023-02-18T00:34:51.590Z,97.63
2023-02-18T00:39:51.554Z,96.41
2023-02-18T00:44:51.470Z,95.54
2023-02-18T00:49:51.415Z,95.14
2023-02-18T00:54:51.367Z,95.34
2023-02-18T00:59:51.297Z,95.24
2023-02-18T01:04:51.258Z,95.29
2023-02-18T01:10:19.612Z,95.20
2023-02-18T01:15:11.990Z,95.81
2023-02-18T01:20:11.969Z,96.12
2023-02-18T01:25:11.901Z,96.01
2023-02-18T01:30:11.850Z,96.01
2023-02-18T01:35:11.762Z,96.32
2023-02-18T01:40:11.673Z,96.42
2023-02-18T01:45:11.616Z,96.01
2023-02-18T01:50:11.543Z,95.66
2023-02-18T01:55:11.489Z,95.66
2023-02-18T02:00:11.408Z,95.66
2023-02-18T02:05:11.372Z,95.46
2023-02-18T02:10:11.274Z,95.36
2023-02-18T02:15:11.230Z,95.25
2023-02-18T02:20:11.125Z,95.46
2023-02-18T02:25:11.098Z,95.97
2023-02-18T02:30:11.046Z,96.07
2023-02-18T02:35:10.951Z,95.87
2023-02-18T02:40:10.883Z,96.17
2023-02-18T02:45:10.819Z,96.58
2023-02-18T02:50:10.748Z,96.58
2023-02-18T02:55:10.727Z,96.83
2023-02-18T03:00:10.633Z,97.04
2023-02-18T03:05:10.562Z,97.45
2023-02-18T03:10:10.474Z,97.65
2023-02-18T03:15:10.437Z,97.96
2023-02-18T03:20:10.364Z,98.16
2023-02-18T03:25:10.312Z,98.27
2023-02-18T03:30:10.311Z,98.16
2023-02-18T03:35:10.184Z,98.07
2023-02-18T03:40:10.074Z,97.96
2023-02-18T03:45:10.049Z,97.86
2023-02-18T03:50:09.977Z,97.75
2023-02-18T03:55:09.898Z,97.55
2023-02-18T04:00:09.805Z,97.55
2023-02-18T04:05:09.765Z,97.55
2023-02-18T04:10:09.658Z,97.65
2023-02-18T04:15:09.629Z,97.55
2023-02-18T04:20:09.564Z,97.75
2023-02-18T04:25:09.462Z,97.96
2023-02-18T04:30:09.463Z,98.16
2023-02-18T04:35:09.359Z,98.27
2023-02-18T04:40:09.277Z,98.27
2023-02-18T04:45:09.213Z,98.07
2023-02-18T04:50:09.162Z,98.07
2023-02-18T04:55:09.094Z,97.61
2023-02-18T05:00:09.029Z,96.38
2023-02-18T05:05:08.936Z,95.76
2023-02-18T05:10:10.346Z,94.90
2023-02-18T05:15:41.895Z,94.49
2023-02-18T05:20:33.588Z,94.49
2023-02-18T05:25:33.540Z,94.29
2023-02-18T05:30:33.589Z,93.52
2023-02-18T05:35:33.412Z,93.84
2023-02-18T05:40:33.332Z,94.08
2023-02-18T05:45:33.284Z,93.98
2023-02-18T05:50:33.188Z,94.18
2023-02-18T05:55:33.143Z,94.29
2023-02-18T06:00:33.060Z,94.18
2023-02-18T06:05:33.083Z,94.29
2023-02-18T06:10:32.968Z,94.18
2023-02-18T06:15:32.934Z,94.39
2023-02-18T06:20:32.802Z,94.39
2023-02-18T06:25:32.746Z,94.29
2023-02-18T06:30:32.752Z,94.39
2023-02-18T06:35:32.611Z,93.98
2023-02-18T06:40:32.520Z,93.30
2023-02-18T06:45:32.470Z,93.26
2023-02-18T06:50:32.384Z,93.16
2023-02-18T06:55:32.365Z,93.71
2023-02-18T07:00:32.351Z,93.71
2023-02-18T07:05:32.172Z,93.00
2023-02-18T07:10:32.127Z,92.90
2023-02-18T07:15:32.081Z,91.63
2023-02-18T07:20:31.975Z,89.68
2023-02-18T07:25:31.948Z,89.03
2023-02-18T07:30:31.917Z,86.88
2023-02-18T07:35:31.802Z,86.22
2023-02-18T07:40:31.737Z,84.89
2023-02-18T07:45:31.705Z,84.79
2023-02-18T07:50:31.569Z,85.20
2023-02-18T07:55:31.540Z,86.53
2023-02-18T08:00:31.479Z,86.22
2023-02-18T08:05:31.424Z,86.43
2023-02-18T08:10:31.321Z,85.30
2023-02-18T08:15:31.304Z,84.85
2023-02-18T08:20:31.244Z,82.26
2023-02-18T08:25:31.121Z,83.38
2023-02-18T08:30:31.136Z,82.77
2023-02-18T08:35:31.028Z,83.07
2023-02-18T08:40:30.913Z,81.03
2023-02-18T08:45:30.900Z,80.93
2023-02-18T08:50:30.799Z,80.89
2023-02-18T08:55:30.768Z,80.48
2023-02-18T09:00:30.711Z,80.07
2023-02-18T09:05:30.617Z,79.36
2023-02-18T09:10:30.573Z,78.75
2023-02-18T09:15:30.517Z,80.48
2023-02-18T09:20:30.397Z,80.62
2023-02-18T09:25:30.433Z,80.32
2023-02-18T09:30:30.367Z,79.60
2023-02-18T09:35:30.272Z,78.48
2023-02-18T09:40:30.159Z,77.86
2023-02-18T09:45:30.095Z,79.50
2023-02-18T09:50:30.040Z,79.13
2023-02-18T09:55:30.042Z,79.64
2023-02-18T10:00:29.875Z,78.92
2023-02-18T10:05:29.940Z,78.72
2023-02-18T10:10:29.763Z,77.76
2023-02-18T10:15:29.697Z,77.04
2023-02-18T10:20:30.288Z,77.56
2023-02-18T10:25:29.608Z,78.11
2023-02-18T10:30:29.517Z,78.41
2023-02-18T10:35:29.422Z,77.19
2023-02-18T10:40:29.375Z,77.59
2023-02-18T10:45:29.317Z,78.07
2023-02-18T10:50:29.236Z,78.31
2023-02-18T10:55:29.173Z,78.82
2023-02-18T11:00:29.091Z,78.92
2023-02-18T11:05:29.048Z,79.64
2023-02-18T11:10:28.963Z,79.94
2023-02-18T11:15:28.928Z,80.56
2023-02-18T11:20:28.838Z,80.66
2023-02-18T11:25:28.805Z,80.56
2023-02-18T11:30:28.705Z,80.42
2023-02-18T11:35:28.666Z,79.46
2023-02-18T11:40:28.567Z,79.66
2023-02-18T11:45:28.530Z,79.57
2023-02-18T11:50:28.406Z,79.97
2023-02-18T11:55:28.385Z,80.18
2023-02-18T12:00:28.366Z,83.14
2023-02-18T12:05:28.276Z,86.65
2023-02-18T12:10:28.179Z,90.06
2023-02-18T12:15:28.119Z,91.95
2023-02-18T12:20:28.042Z,93.28
2023-02-18T12:25:28.118Z,94.34
2023-02-18T12:30:27.953Z,94.92
2023-02-18T12:35:27.839Z,93.79
2023-02-18T12:40:27.793Z,93.28
2023-02-18T12:45:27.728Z,94.51
2023-02-18T12:50:27.650Z,95.43
2023-02-18T12:55:27.865Z,94.92
2023-02-18T13:00:27.761Z,95.43
2023-02-18T13:05:27.431Z,95.38
2023-02-18T13:10:27.819Z,95.18
2023-02-18T13:15:27.339Z,95.38
2023-02-18T13:20:27.658Z,95.73
2023-02-18T13:25:27.223Z,95.53
2023-02-18T13:30:27.137Z,96.19
2023-02-18T13:35:27.075Z,96.49
2023-02-18T13:40:26.969Z,96.59
2023-02-18T13:45:26.960Z,97.72
2023-02-18T13:50:26.856Z,96.70
2023-02-18T13:55:26.795Z,98.13
2023-02-18T14:00:26.708Z,98.33
2023-02-18T14:05:26.684Z,97.41
2023-02-18T14:10:26.633Z,97.41
2023-02-18T14:15:26.652Z,97.11
2023-02-18T14:20:26.468Z,97.62
2023-02-18T14:25:26.440Z,97.52
2023-02-18T14:30:26.863Z,97.21
2023-02-18T14:35:26.288Z,97.00
2023-02-18T14:40:26.205Z,97.11
2023-02-18T14:45:26.107Z,97.41
2023-02-18T14:50:26.062Z,97.31
2023-02-18T14:55:25.995Z,96.80
2023-02-18T15:00:25.947Z,96.29
2023-02-18T15:05:25.910Z,96.08
2023-02-18T15:10:25.847Z,96.08
2023-02-18T15:15:25.753Z,96.34
2023-02-18T15:20:25.796Z,96.29
2023-02-18T15:25:25.623Z,96.19
2023-02-18T15:30:25.596Z,95.67
2023-02-18T15:35:25.478Z,95.37
2023-02-18T15:40:25.380Z,95.47
2023-02-18T15:45:25.327Z,95.26
2023-02-18T15:50:25.265Z,94.85
2023-02-18T15:55:25.232Z,95.06
2023-02-18T16:00:25.194Z,95.26
2023-02-18T16:05:25.084Z,95.17
2023-02-18T16:10:25.860Z,94.75
2023-02-18T16:15:24.938Z,94.34
2023-02-18T16:20:24.851Z,93.43
2023-02-18T16:25:24.929Z,93.32
2023-02-18T16:30:25.745Z,92.50
2023-02-18T16:35:24.717Z,93.01
2023-02-18T16:40:24.620Z,93.73
2023-02-18T16:45:24.579Z,93.32
2023-02-18T16:50:24.455Z,93.93
2023-02-18T16:55:24.882Z,94.49
2023-02-18T17:00:24.353Z,94.90
2023-02-18T17:05:26.882Z,94.59
2023-02-18T17:10:24.242Z,95.10
2023-02-18T17:15:24.158Z,95.31
2023-02-18T17:20:24.224Z,95.21
2023-02-18T17:25:24.014Z,95.66
2023-02-18T17:30:24.027Z,95.25
2023-02-18T17:35:23.906Z,95.05
2023-02-18T17:40:23.826Z,95.56
2023-02-18T17:45:23.774Z,95.66
2023-02-18T17:50:23.681Z,95.56
2023-02-18T17:55:23.629Z,95.97
2023-02-18T18:00:23.535Z,96.38
2023-02-18T18:05:23.512Z,96.79
2023-02-18T18:10:23.416Z,96.99
2023-02-18T18:15:23.348Z,97.14
2023-02-18T18:20:23.252Z,97.14
2023-02-18T18:25:23.320Z,96.94
2023-02-18T18:30:23.204Z,96.73
2023-02-18T18:35:23.070Z,96.12
2023-02-18T18:40:23.143Z,96.01
2023-02-18T18:45:22.951Z,95.70
2023-02-18T18:50:22.884Z,95.40
2023-02-18T18:55:22.827Z,95.05
2023-02-18T19:00:22.745Z,95.25
2023-02-18T19:05:22.704Z,95.29
2023-02-18T19:10:22.735Z,95.70
2023-02-18T19:15:22.575Z,95.81
2023-02-18T19:20:22.617Z,96.22
2023-02-18T19:25:22.430Z,96.42
2023-02-18T19:30:22.449Z,96.53
2023-02-18T19:35:22.313Z,96.88
2023-02-18T19:40:22.272Z,96.88
2023-02-18T19:45:22.281Z,96.78
2023-02-18T19:50:22.106Z,96.88
2023-02-18T19:55:22.050Z,96.98
2023-02-18T20:00:21.943Z,96.57
2023-02-18T20:05:21.909Z,96.57
2023-02-18T20:10:21.866Z,96.67
2023-02-18T20:15:21.811Z,96.57
2023-02-18T20:20:21.717Z,96.67
2023-02-18T20:25:21.666Z,96.67
2023-02-18T20:30:21.560Z,96.78
2023-02-18T20:35:21.530Z,96.47
2023-02-18T20:40:21.457Z,96.47
2023-02-18T20:45:21.371Z,96.47
2023-02-18T20:50:21.284Z,96.37
2023-02-18T20:55:21.219Z,96.37
2023-02-18T21:00:21.161Z,96.16
2023-02-18T21:05:21.096Z,96.26
2023-02-18T21:10:21.072Z,95.95
2023-02-18T21:15:20.988Z,95.75
2023-02-18T21:20:20.880Z,95.75
2023-02-18T21:25:20.843Z,95.95
2023-02-18T21:30:20.802Z,96.06
2023-02-18T21:35:20.768Z,96.16
2023-02-18T21:40:20.628Z,96.57
2023-02-18T21:45:20.603Z,96.47
2023-02-18T21:50:20.479Z,96.47
2023-02-18T21:55:20.444Z,96.47
2023-02-18T22:00:21.166Z,96.47
2023-02-18T22:05:20.453Z,96.78
2023-02-18T22:10:20.326Z,96.67
2023-02-18T22:15:20.412Z,96.67
2023-02-18T22:20:20.100Z,96.78
2023-02-18T22:25:20.064Z,96.98
2023-02-18T22:30:20.054Z,96.98
2023-02-18T22:35:19.995Z,96.98
2023-02-18T22:40:19.874Z,97.08
2023-02-18T22:45:19.930Z,97.19
2023-02-18T22:50:19.801Z,97.19
2023-02-18T22:55:19.644Z,97.19
2023-02-18T23:00:19.587Z,97.29
2023-02-18T23:05:19.506Z,97.19
2023-02-18T23:10:19.421Z,97.29
2023-02-18T23:15:19.391Z,96.98
2023-02-18T23:20:19.284Z,96.88
2023-02-18T23:25:19.255Z,96.57
2023-02-18T23:30:19.258Z,96.57
2023-02-18T23:35:19.111Z,96.67
2023-02-18T23:40:19.057Z,97.08
2023-02-18T23:45:19.008Z,97.29
2023-02-18T23:50:18.898Z,97.29
2023-02-18T23:55:18.847Z,97.29
